sensor_id;sensor_type;location;lat;lon;timestamp;P1;durP1;ratioP1;P2;durP2;ratioP2
23115;SDS011;11727;52.134;5.052;2023-04-06T00:01:36;9.70;;;5.07;;
23115;SDS011;11727;52.134;5.052;2023-04-06T00:04:02;10.15;;;4.78;;
23115;SDS011;11727;52.134;5.052;2023-04-06T00:06:28;14.60;;;4.78;;
23115;SDS011;11727;52.134;5.052;2023-04-06T00:08:53;12.23;;;5.22;;
23115;SDS011;11727;52.134;5.052;2023-04-06T00:11:20;9.32;;;5.07;;
23115;SDS011;11727;52.134;5.052;2023-04-06T00:13:46;11.30;;;4.63;;
23115;SDS011;11727;52.134;5.052;2023-04-06T00:16:12;8.00;;;4.72;;
23115;SDS011;11727;52.134;5.052;2023-04-06T00:18:37;11.75;;;5.20;;
23115;SDS011;11727;52.134;5.052;2023-04-06T00:21:03;12.35;;;4.80;;
23115;SDS011;11727;52.134;5.052;2023-04-06T00:23:29;10.35;;;4.65;;
23115;SDS011;11727;52.134;5.052;2023-04-06T00:25:55;13.85;;;4.68;;
23115;SDS011;11727;52.134;5.052;2023-04-06T00:28:21;10.82;;;4.32;;
23115;SDS011;11727;52.134;5.052;2023-04-06T00:30:50;11.52;;;4.75;;
23115;SDS011;11727;52.134;5.052;2023-04-06T00:33:18;13.68;;;5.43;;
23115;SDS011;11727;52.134;5.052;2023-04-06T00:35:44;9.55;;;4.53;;
23115;SDS011;11727;52.134;5.052;2023-04-06T00:38:11;9.60;;;4.55;;
23115;SDS011;11727;52.134;5.052;2023-04-06T00:40:37;10.20;;;4.85;;
23115;SDS011;11727;52.134;5.052;2023-04-06T00:43:04;8.93;;;3.80;;
23115;SDS011;11727;52.134;5.052;2023-04-06T00:45:34;17.80;;;6.15;;
23115;SDS011;11727;52.134;5.052;2023-04-06T00:48:00;12.85;;;4.80;;
23115;SDS011;11727;52.134;5.052;2023-04-06T00:50:26;16.23;;;5.30;;
23115;SDS011;11727;52.134;5.052;2023-04-06T00:52:53;15.88;;;5.68;;
23115;SDS011;11727;52.134;5.052;2023-04-06T00:55:19;17.02;;;5.93;;
23115;SDS011;11727;52.134;5.052;2023-04-06T00:57:45;10.90;;;5.47;;
23115;SDS011;11727;52.134;5.052;2023-04-06T01:00:12;11.73;;;5.50;;
23115;SDS011;11727;52.134;5.052;2023-04-06T01:02:38;9.50;;;4.28;;
23115;SDS011;11727;52.134;5.052;2023-04-06T01:05:04;11.98;;;4.15;;
23115;SDS011;11727;52.134;5.052;2023-04-06T01:07:30;12.38;;;5.53;;
23115;SDS011;11727;52.134;5.052;2023-04-06T01:09:57;8.73;;;4.47;;
23115;SDS011;11727;52.134;5.052;2023-04-06T01:12:23;11.67;;;4.40;;
23115;SDS011;11727;52.134;5.052;2023-04-06T01:14:49;9.50;;;4.80;;
23115;SDS011;11727;52.134;5.052;2023-04-06T01:17:15;10.82;;;4.75;;
23115;SDS011;11727;52.134;5.052;2023-04-06T01:19:41;9.18;;;4.07;;
23115;SDS011;11727;52.134;5.052;2023-04-06T01:22:06;13.02;;;4.65;;
23115;SDS011;11727;52.134;5.052;2023-04-06T01:24:32;6.97;;;4.03;;
23115;SDS011;11727;52.134;5.052;2023-04-06T01:26:58;6.97;;;3.40;;
23115;SDS011;11727;52.134;5.052;2023-04-06T01:29:24;13.90;;;4.50;;
23115;SDS011;11727;52.134;5.052;2023-04-06T01:31:50;16.13;;;4.18;;
23115;SDS011;11727;52.134;5.052;2023-04-06T01:34:15;9.30;;;4.32;;
23115;SDS011;11727;52.134;5.052;2023-04-06T01:36:41;10.40;;;4.20;;
23115;SDS011;11727;52.134;5.052;2023-04-06T01:39:07;13.50;;;4.68;;
23115;SDS011;11727;52.134;5.052;2023-04-06T01:41:33;13.48;;;3.95;;
23115;SDS011;11727;52.134;5.052;2023-04-06T01:43:59;12.10;;;4.25;;
23115;SDS011;11727;52.134;5.052;2023-04-06T01:46:24;9.07;;;3.95;;
23115;SDS011;11727;52.134;5.052;2023-04-06T01:48:50;9.60;;;4.65;;
23115;SDS011;11727;52.134;5.052;2023-04-06T01:51:16;16.75;;;3.83;;
23115;SDS011;11727;52.134;5.052;2023-04-06T01:53:41;10.70;;;5.10;;
23115;SDS011;11727;52.134;5.052;2023-04-06T01:56:07;13.18;;;4.88;;
23115;SDS011;11727;52.134;5.052;2023-04-06T01:58:33;11.52;;;4.65;;
23115;SDS011;11727;52.134;5.052;2023-04-06T02:00:58;11.57;;;4.93;;
23115;SDS011;11727;52.134;5.052;2023-04-06T02:03:24;11.30;;;4.32;;
23115;SDS011;11727;52.134;5.052;2023-04-06T02:05:50;9.00;;;4.13;;
23115;SDS011;11727;52.134;5.052;2023-04-06T02:08:15;12.32;;;4.75;;
23115;SDS011;11727;52.134;5.052;2023-04-06T02:10:41;7.75;;;3.85;;
23115;SDS011;11727;52.134;5.052;2023-04-06T02:13:06;10.38;;;4.75;;
23115;SDS011;11727;52.134;5.052;2023-04-06T02:15:32;7.93;;;4.30;;
23115;SDS011;11727;52.134;5.052;2023-04-06T02:17:58;13.85;;;4.47;;
23115;SDS011;11727;52.134;5.052;2023-04-06T02:20:24;10.45;;;4.13;;
23115;SDS011;11727;52.134;5.052;2023-04-06T02:22:50;13.18;;;4.80;;
23115;SDS011;11727;52.134;5.052;2023-04-06T02:25:15;10.60;;;4.88;;
23115;SDS011;11727;52.134;5.052;2023-04-06T02:27:41;9.25;;;4.07;;
23115;SDS011;11727;52.134;5.052;2023-04-06T02:30:07;7.75;;;4.15;;
23115;SDS011;11727;52.134;5.052;2023-04-06T02:32:33;14.77;;;4.68;;
23115;SDS011;11727;52.134;5.052;2023-04-06T02:34:59;9.82;;;4.07;;
23115;SDS011;11727;52.134;5.052;2023-04-06T02:37:25;14.73;;;5.57;;
23115;SDS011;11727;52.134;5.052;2023-04-06T02:39:51;10.75;;;4.07;;
23115;SDS011;11727;52.134;5.052;2023-04-06T02:42:16;11.48;;;4.50;;
23115;SDS011;11727;52.134;5.052;2023-04-06T02:44:42;17.42;;;5.28;;
23115;SDS011;11727;52.134;5.052;2023-04-06T02:47:08;13.68;;;4.88;;
23115;SDS011;11727;52.134;5.052;2023-04-06T02:49:34;12.05;;;5.03;;
23115;SDS011;11727;52.134;5.052;2023-04-06T02:51:59;9.07;;;4.65;;
23115;SDS011;11727;52.134;5.052;2023-04-06T02:54:25;12.73;;;4.65;;
23115;SDS011;11727;52.134;5.052;2023-04-06T02:56:51;9.63;;;4.60;;
23115;SDS011;11727;52.134;5.052;2023-04-06T02:59:16;12.35;;;4.90;;
23115;SDS011;11727;52.134;5.052;2023-04-06T03:01:42;13.68;;;4.90;;
23115;SDS011;11727;52.134;5.052;2023-04-06T03:04:08;14.68;;;4.43;;
23115;SDS011;11727;52.134;5.052;2023-04-06T03:06:33;11.18;;;4.97;;
23115;SDS011;11727;52.134;5.052;2023-04-06T03:08:59;9.77;;;4.80;;
23115;SDS011;11727;52.134;5.052;2023-04-06T03:11:25;9.70;;;5.03;;
23115;SDS011;11727;52.134;5.052;2023-04-06T03:13:51;12.95;;;5.00;;
23115;SDS011;11727;52.134;5.052;2023-04-06T03:16:17;12.20;;;4.82;;
23115;SDS011;11727;52.134;5.052;2023-04-06T03:18:43;8.43;;;4.32;;
23115;SDS011;11727;52.134;5.052;2023-04-06T03:21:10;9.30;;;4.80;;
23115;SDS011;11727;52.134;5.052;2023-04-06T03:23:36;12.95;;;5.13;;
23115;SDS011;11727;52.134;5.052;2023-04-06T03:26:02;16.52;;;5.40;;
23115;SDS011;11727;52.134;5.052;2023-04-06T03:28:28;13.02;;;4.82;;
23115;SDS011;11727;52.134;5.052;2023-04-06T03:30:54;10.75;;;4.50;;
23115;SDS011;11727;52.134;5.052;2023-04-06T03:33:19;12.98;;;5.30;;
23115;SDS011;11727;52.134;5.052;2023-04-06T03:35:45;12.88;;;4.50;;
23115;SDS011;11727;52.134;5.052;2023-04-06T03:38:11;14.23;;;4.45;;
23115;SDS011;11727;52.134;5.052;2023-04-06T03:40:36;15.13;;;5.78;;
23115;SDS011;11727;52.134;5.052;2023-04-06T03:43:02;12.27;;;5.05;;
23115;SDS011;11727;52.134;5.052;2023-04-06T03:45:29;13.48;;;5.65;;
23115;SDS011;11727;52.134;5.052;2023-04-06T03:47:54;17.08;;;5.65;;
23115;SDS011;11727;52.134;5.052;2023-04-06T03:50:20;11.63;;;5.22;;
23115;SDS011;11727;52.134;5.052;2023-04-06T03:52:46;13.43;;;5.50;;
23115;SDS011;11727;52.134;5.052;2023-04-06T03:55:11;10.52;;;5.05;;
23115;SDS011;11727;52.134;5.052;2023-04-06T03:57:37;13.73;;;5.93;;
23115;SDS011;11727;52.134;5.052;2023-04-06T04:00:03;13.82;;;5.10;;
23115;SDS011;11727;52.134;5.052;2023-04-06T04:02:29;10.17;;;5.00;;
23115;SDS011;11727;52.134;5.052;2023-04-06T04:04:55;13.57;;;5.32;;
23115;SDS011;11727;52.134;5.052;2023-04-06T04:07:20;14.07;;;5.57;;
23115;SDS011;11727;52.134;5.052;2023-04-06T04:09:46;12.73;;;5.20;;
23115;SDS011;11727;52.134;5.052;2023-04-06T04:12:12;14.95;;;5.93;;
23115;SDS011;11727;52.134;5.052;2023-04-06T04:14:39;15.30;;;6.20;;
23115;SDS011;11727;52.134;5.052;2023-04-06T04:17:05;18.25;;;5.50;;
23115;SDS011;11727;52.134;5.052;2023-04-06T04:19:30;13.93;;;5.88;;
23115;SDS011;11727;52.134;5.052;2023-04-06T04:21:56;22.35;;;7.05;;
23115;SDS011;11727;52.134;5.052;2023-04-06T04:24:21;14.15;;;6.25;;
23115;SDS011;11727;52.134;5.052;2023-04-06T04:26:47;21.52;;;6.88;;
23115;SDS011;11727;52.134;5.052;2023-04-06T04:29:13;17.50;;;5.65;;
23115;SDS011;11727;52.134;5.052;2023-04-06T04:31:38;14.70;;;5.95;;
23115;SDS011;11727;52.134;5.052;2023-04-06T04:34:04;14.02;;;5.88;;
23115;SDS011;11727;52.134;5.052;2023-04-06T04:36:31;12.65;;;6.60;;
23115;SDS011;11727;52.134;5.052;2023-04-06T04:38:57;13.55;;;6.63;;
23115;SDS011;11727;52.134;5.052;2023-04-06T04:41:23;18.40;;;6.07;;
23115;SDS011;11727;52.134;5.052;2023-04-06T04:43:48;19.02;;;7.43;;
23115;SDS011;11727;52.134;5.052;2023-04-06T04:46:14;16.98;;;5.30;;
23115;SDS011;11727;52.134;5.052;2023-04-06T04:48:39;14.30;;;6.28;;
23115;SDS011;11727;52.134;5.052;2023-04-06T04:51:05;20.33;;;7.07;;
23115;SDS011;11727;52.134;5.052;2023-04-06T04:53:31;16.92;;;6.75;;
23115;SDS011;11727;52.134;5.052;2023-04-06T04:55:56;16.08;;;6.72;;
23115;SDS011;11727;52.134;5.052;2023-04-06T04:58:22;15.05;;;6.80;;
23115;SDS011;11727;52.134;5.052;2023-04-06T05:00:47;17.42;;;7.78;;
23115;SDS011;11727;52.134;5.052;2023-04-06T05:03:15;21.10;;;7.10;;
23115;SDS011;11727;52.134;5.052;2023-04-06T05:05:46;19.00;;;6.65;;
23115;SDS011;11727;52.134;5.052;2023-04-06T05:08:12;16.42;;;6.63;;
23115;SDS011;11727;52.134;5.052;2023-04-06T05:10:38;15.57;;;6.18;;
23115;SDS011;11727;52.134;5.052;2023-04-06T05:13:03;14.30;;;6.32;;
23115;SDS011;11727;52.134;5.052;2023-04-06T05:15:29;17.65;;;6.35;;
23115;SDS011;11727;52.134;5.052;2023-04-06T05:17:55;18.50;;;7.13;;
23115;SDS011;11727;52.134;5.052;2023-04-06T05:20:24;15.55;;;6.18;;
23115;SDS011;11727;52.134;5.052;2023-04-06T05:22:50;16.98;;;6.80;;
23115;SDS011;11727;52.134;5.052;2023-04-06T05:25:15;18.73;;;6.65;;
23115;SDS011;11727;52.134;5.052;2023-04-06T05:27:41;13.80;;;6.10;;
23115;SDS011;11727;52.134;5.052;2023-04-06T05:30:07;16.67;;;7.18;;
23115;SDS011;11727;52.134;5.052;2023-04-06T05:32:33;14.23;;;6.60;;
23115;SDS011;11727;52.134;5.052;2023-04-06T05:34:59;16.58;;;6.82;;
23115;SDS011;11727;52.134;5.052;2023-04-06T05:37:25;25.73;;;6.60;;
23115;SDS011;11727;52.134;5.052;2023-04-06T05:39:50;16.13;;;6.65;;
23115;SDS011;11727;52.134;5.052;2023-04-06T05:42:16;16.30;;;7.38;;
23115;SDS011;11727;52.134;5.052;2023-04-06T05:44:42;22.98;;;7.82;;
23115;SDS011;11727;52.134;5.052;2023-04-06T05:47:07;16.67;;;6.93;;
23115;SDS011;11727;52.134;5.052;2023-04-06T05:49:33;19.88;;;6.60;;
23115;SDS011;11727;52.134;5.052;2023-04-06T05:51:59;17.85;;;7.28;;
23115;SDS011;11727;52.134;5.052;2023-04-06T05:54:26;14.93;;;7.05;;
23115;SDS011;11727;52.134;5.052;2023-04-06T05:56:51;16.02;;;6.65;;
23115;SDS011;11727;52.134;5.052;2023-04-06T05:59:17;19.13;;;8.23;;
23115;SDS011;11727;52.134;5.052;2023-04-06T06:01:43;18.98;;;7.43;;
23115;SDS011;11727;52.134;5.052;2023-04-06T06:04:08;19.10;;;7.20;;
23115;SDS011;11727;52.134;5.052;2023-04-06T06:06:34;22.23;;;7.75;;
23115;SDS011;11727;52.134;5.052;2023-04-06T06:09:00;13.00;;;6.15;;
23115;SDS011;11727;52.134;5.052;2023-04-06T06:11:28;20.40;;;7.78;;
23115;SDS011;11727;52.134;5.052;2023-04-06T06:13:54;18.60;;;6.93;;
23115;SDS011;11727;52.134;5.052;2023-04-06T06:16:20;15.00;;;5.72;;
23115;SDS011;11727;52.134;5.052;2023-04-06T06:18:45;17.75;;;6.60;;
23115;SDS011;11727;52.134;5.052;2023-04-06T06:21:11;16.20;;;7.18;;
23115;SDS011;11727;52.134;5.052;2023-04-06T06:23:37;17.73;;;7.45;;
23115;SDS011;11727;52.134;5.052;2023-04-06T06:26:04;16.87;;;7.10;;
23115;SDS011;11727;52.134;5.052;2023-04-06T06:28:30;17.38;;;7.30;;
23115;SDS011;11727;52.134;5.052;2023-04-06T06:30:55;11.98;;;5.68;;
23115;SDS011;11727;52.134;5.052;2023-04-06T06:33:21;15.88;;;7.28;;
23115;SDS011;11727;52.134;5.052;2023-04-06T06:35:47;15.32;;;6.53;;
23115;SDS011;11727;52.134;5.052;2023-04-06T06:38:13;18.65;;;8.00;;
23115;SDS011;11727;52.134;5.052;2023-04-06T06:40:40;20.33;;;7.55;;
23115;SDS011;11727;52.134;5.052;2023-04-06T06:43:06;15.88;;;7.03;;
23115;SDS011;11727;52.134;5.052;2023-04-06T06:45:32;15.20;;;6.68;;
23115;SDS011;11727;52.134;5.052;2023-04-06T06:47:58;15.13;;;6.68;;
23115;SDS011;11727;52.134;5.052;2023-04-06T06:50:23;20.13;;;7.43;;
23115;SDS011;11727;52.134;5.052;2023-04-06T06:52:49;18.48;;;7.15;;
23115;SDS011;11727;52.134;5.052;2023-04-06T06:55:15;18.10;;;6.85;;
23115;SDS011;11727;52.134;5.052;2023-04-06T06:57:41;16.52;;;8.00;;
23115;SDS011;11727;52.134;5.052;2023-04-06T07:00:10;24.02;;;8.32;;
23115;SDS011;11727;52.134;5.052;2023-04-06T07:02:38;18.63;;;7.28;;
23115;SDS011;11727;52.134;5.052;2023-04-06T07:05:04;21.10;;;7.63;;
23115;SDS011;11727;52.134;5.052;2023-04-06T07:07:31;18.20;;;6.30;;
23115;SDS011;11727;52.134;5.052;2023-04-06T07:09:57;18.25;;;7.75;;
23115;SDS011;11727;52.134;5.052;2023-04-06T07:12:23;21.05;;;7.85;;
23115;SDS011;11727;52.134;5.052;2023-04-06T07:14:48;18.48;;;7.47;;
23115;SDS011;11727;52.134;5.052;2023-04-06T07:17:14;20.05;;;7.93;;
23115;SDS011;11727;52.134;5.052;2023-04-06T07:19:40;26.10;;;8.98;;
23115;SDS011;11727;52.134;5.052;2023-04-06T07:22:05;17.85;;;8.20;;
23115;SDS011;11727;52.134;5.052;2023-04-06T07:24:31;19.02;;;7.45;;
23115;SDS011;11727;52.134;5.052;2023-04-06T07:26:58;17.33;;;7.93;;
23115;SDS011;11727;52.134;5.052;2023-04-06T07:29:24;24.53;;;8.33;;
23115;SDS011;11727;52.134;5.052;2023-04-06T07:31:49;23.95;;;8.15;;
23115;SDS011;11727;52.134;5.052;2023-04-06T07:34:15;18.30;;;8.38;;
23115;SDS011;11727;52.134;5.052;2023-04-06T07:36:41;24.77;;;8.15;;
23115;SDS011;11727;52.134;5.052;2023-04-06T07:39:07;20.52;;;7.95;;
23115;SDS011;11727;52.134;5.052;2023-04-06T07:41:32;18.48;;;7.75;;
23115;SDS011;11727;52.134;5.052;2023-04-06T07:43:58;18.20;;;7.78;;
23115;SDS011;11727;52.134;5.052;2023-04-06T07:46:24;22.20;;;8.45;;
23115;SDS011;11727;52.134;5.052;2023-04-06T07:48:50;19.20;;;8.57;;
23115;SDS011;11727;52.134;5.052;2023-04-06T07:51:16;20.60;;;7.55;;
23115;SDS011;11727;52.134;5.052;2023-04-06T07:53:43;20.63;;;9.20;;
23115;SDS011;11727;52.134;5.052;2023-04-06T07:56:09;25.05;;;8.93;;
23115;SDS011;11727;52.134;5.052;2023-04-06T07:58:35;19.48;;;8.35;;
23115;SDS011;11727;52.134;5.052;2023-04-06T08:01:01;18.15;;;8.80;;
23115;SDS011;11727;52.134;5.052;2023-04-06T08:03:27;18.85;;;8.85;;
23115;SDS011;11727;52.134;5.052;2023-04-06T08:05:52;20.08;;;8.10;;
23115;SDS011;11727;52.134;5.052;2023-04-06T08:08:18;20.35;;;8.73;;
23115;SDS011;11727;52.134;5.052;2023-04-06T08:10:46;22.45;;;8.35;;
23115;SDS011;11727;52.134;5.052;2023-04-06T08:13:12;21.05;;;9.40;;
23115;SDS011;11727;52.134;5.052;2023-04-06T08:15:38;21.33;;;9.90;;
23115;SDS011;11727;52.134;5.052;2023-04-06T08:18:03;19.80;;;8.57;;
23115;SDS011;11727;52.134;5.052;2023-04-06T08:20:29;18.75;;;8.43;;
23115;SDS011;11727;52.134;5.052;2023-04-06T08:22:55;22.90;;;10.48;;
23115;SDS011;11727;52.134;5.052;2023-04-06T08:25:20;32.88;;;9.63;;
23115;SDS011;11727;52.134;5.052;2023-04-06T08:27:46;20.63;;;9.02;;
23115;SDS011;11727;52.134;5.052;2023-04-06T08:30:12;24.05;;;9.45;;
23115;SDS011;11727;52.134;5.052;2023-04-06T08:32:39;23.38;;;9.13;;
23115;SDS011;11727;52.134;5.052;2023-04-06T08:35:06;26.88;;;9.10;;
23115;SDS011;11727;52.134;5.052;2023-04-06T08:37:32;26.90;;;10.18;;
23115;SDS011;11727;52.134;5.052;2023-04-06T08:39:58;22.98;;;9.45;;
23115;SDS011;11727;52.134;5.052;2023-04-06T08:42:25;18.25;;;8.63;;
23115;SDS011;11727;52.134;5.052;2023-04-06T08:44:51;26.88;;;9.57;;
23115;SDS011;11727;52.134;5.052;2023-04-06T08:47:18;22.80;;;9.07;;
23115;SDS011;11727;52.134;5.052;2023-04-06T08:49:44;23.33;;;9.00;;
23115;SDS011;11727;52.134;5.052;2023-04-06T08:52:11;24.35;;;9.23;;
23115;SDS011;11727;52.134;5.052;2023-04-06T08:54:37;24.25;;;10.63;;
23115;SDS011;11727;52.134;5.052;2023-04-06T08:57:04;22.03;;;10.03;;
23115;SDS011;11727;52.134;5.052;2023-04-06T08:59:31;20.60;;;9.18;;
23115;SDS011;11727;52.134;5.052;2023-04-06T09:01:57;18.40;;;8.10;;
23115;SDS011;11727;52.134;5.052;2023-04-06T09:04:24;29.37;;;9.57;;
23115;SDS011;11727;52.134;5.052;2023-04-06T09:06:51;28.10;;;9.30;;
23115;SDS011;11727;52.134;5.052;2023-04-06T09:09:17;24.88;;;9.80;;
23115;SDS011;11727;52.134;5.052;2023-04-06T09:14:12;26.42;;;9.55;;
23115;SDS011;11727;52.134;5.052;2023-04-06T09:16:41;20.85;;;9.48;;
23115;SDS011;11727;52.134;5.052;2023-04-06T09:19:08;26.05;;;9.52;;
23115;SDS011;11727;52.134;5.052;2023-04-06T09:21:35;24.08;;;10.10;;
23115;SDS011;11727;52.134;5.052;2023-04-06T09:24:02;23.35;;;10.27;;
23115;SDS011;11727;52.134;5.052;2023-04-06T09:26:28;23.00;;;10.10;;
23115;SDS011;11727;52.134;5.052;2023-04-06T09:28:54;19.50;;;9.73;;
23115;SDS011;11727;52.134;5.052;2023-04-06T09:33:49;32.65;;;11.30;;
23115;SDS011;11727;52.134;5.052;2023-04-06T09:36:15;25.60;;;11.25;;
23115;SDS011;11727;52.134;5.052;2023-04-06T09:38:59;24.52;;;11.05;;
23115;SDS011;11727;52.134;5.052;2023-04-06T09:46:29;24.08;;;10.48;;
23115;SDS011;11727;52.134;5.052;2023-04-06T09:49:07;29.10;;;11.15;;
23115;SDS011;11727;52.134;5.052;2023-04-06T09:51:41;24.27;;;10.77;;
23115;SDS011;11727;52.134;5.052;2023-04-06T09:54:21;24.13;;;9.43;;
23115;SDS011;11727;52.134;5.052;2023-04-06T09:56:53;29.88;;;10.90;;
23115;SDS011;11727;52.134;5.052;2023-04-06T09:59:52;29.13;;;11.85;;
23115;SDS011;11727;52.134;5.052;2023-04-06T10:02:50;22.20;;;10.15;;
23115;SDS011;11727;52.134;5.052;2023-04-06T10:05:37;23.83;;;9.68;;
23115;SDS011;11727;52.134;5.052;2023-04-06T10:08:11;18.67;;;7.95;;
23115;SDS011;11727;52.134;5.052;2023-04-06T10:10:38;22.80;;;9.13;;
23115;SDS011;11727;52.134;5.052;2023-04-06T10:13:04;22.20;;;8.07;;
23115;SDS011;11727;52.134;5.052;2023-04-06T10:15:31;17.50;;;8.43;;
23115;SDS011;11727;52.134;5.052;2023-04-06T10:18:00;23.25;;;7.65;;
23115;SDS011;11727;52.134;5.052;2023-04-06T10:23:12;17.90;;;7.13;;
23115;SDS011;11727;52.134;5.052;2023-04-06T10:25:54;19.38;;;7.63;;
23115;SDS011;11727;52.134;5.052;2023-04-06T10:28:25;16.08;;;6.78;;
23115;SDS011;11727;52.134;5.052;2023-04-06T10:30:59;10.55;;;5.38;;
23115;SDS011;11727;52.134;5.052;2023-04-06T10:33:27;15.48;;;5.68;;
23115;SDS011;11727;52.134;5.052;2023-04-06T10:35:53;12.85;;;6.10;;
23115;SDS011;11727;52.134;5.052;2023-04-06T10:38:20;11.73;;;5.80;;
23115;SDS011;11727;52.134;5.052;2023-04-06T10:40:58;15.43;;;5.85;;
23115;SDS011;11727;52.134;5.052;2023-04-06T10:43:32;12.68;;;6.18;;
23115;SDS011;11727;52.134;5.052;2023-04-06T10:46:00;20.50;;;6.30;;
23115;SDS011;11727;52.134;5.052;2023-04-06T10:48:36;9.48;;;4.50;;
23115;SDS011;11727;52.134;5.052;2023-04-06T10:51:01;11.60;;;5.40;;
23115;SDS011;11727;52.134;5.052;2023-04-06T10:53:42;10.07;;;4.53;;
23115;SDS011;11727;52.134;5.052;2023-04-06T10:56:14;10.73;;;4.40;;
23115;SDS011;11727;52.134;5.052;2023-04-06T10:58:47;12.10;;;4.68;;
23115;SDS011;11727;52.134;5.052;2023-04-06T11:01:17;8.88;;;4.65;;
23115;SDS011;11727;52.134;5.052;2023-04-06T11:03:44;10.10;;;4.10;;
23115;SDS011;11727;52.134;5.052;2023-04-06T11:08:50;8.98;;;5.03;;
23115;SDS011;11727;52.134;5.052;2023-04-06T11:11:17;9.40;;;4.87;;
23115;SDS011;11727;52.134;5.052;2023-04-06T11:16:17;10.20;;;3.92;;
23115;SDS011;11727;52.134;5.052;2023-04-06T11:18:47;6.68;;;3.33;;
23115;SDS011;11727;52.134;5.052;2023-04-06T11:21:36;9.70;;;4.47;;
23115;SDS011;11727;52.134;5.052;2023-04-06T11:24:08;8.25;;;3.50;;
23115;SDS011;11727;52.134;5.052;2023-04-06T11:29:15;13.10;;;4.13;;
23115;SDS011;11727;52.134;5.052;2023-04-06T11:34:16;8.60;;;4.55;;
23115;SDS011;11727;52.134;5.052;2023-04-06T11:36:53;11.70;;;4.13;;
23115;SDS011;11727;52.134;5.052;2023-04-06T11:39:22;11.77;;;4.20;;
23115;SDS011;11727;52.134;5.052;2023-04-06T11:41:57;8.45;;;4.38;;
23115;SDS011;11727;52.134;5.052;2023-04-06T11:47:08;9.20;;;3.70;;
23115;SDS011;11727;52.134;5.052;2023-04-06T11:49:38;8.15;;;4.13;;
23115;SDS011;11727;52.134;5.052;2023-04-06T11:52:18;15.93;;;3.90;;
23115;SDS011;11727;52.134;5.052;2023-04-06T11:54:46;10.38;;;3.80;;
23115;SDS011;11727;52.134;5.052;2023-04-06T11:57:13;11.40;;;4.30;;
23115;SDS011;11727;52.134;5.052;2023-04-06T11:59:38;10.10;;;4.30;;
23115;SDS011;11727;52.134;5.052;2023-04-06T12:02:04;14.63;;;4.72;;
23115;SDS011;11727;52.134;5.052;2023-04-06T12:04:30;6.45;;;3.67;;
23115;SDS011;11727;52.134;5.052;2023-04-06T12:06:57;8.82;;;4.25;;
23115;SDS011;11727;52.134;5.052;2023-04-06T12:09:23;12.32;;;4.68;;
23115;SDS011;11727;52.134;5.052;2023-04-06T12:11:48;10.90;;;4.15;;
23115;SDS011;11727;52.134;5.052;2023-04-06T12:14:14;8.20;;;4.05;;
23115;SDS011;11727;52.134;5.052;2023-04-06T12:16:41;12.27;;;4.13;;
23115;SDS011;11727;52.134;5.052;2023-04-06T12:19:07;11.02;;;4.97;;
23115;SDS011;11727;52.134;5.052;2023-04-06T12:21:33;12.07;;;4.95;;
23115;SDS011;11727;52.134;5.052;2023-04-06T12:24:01;10.73;;;4.80;;
23115;SDS011;11727;52.134;5.052;2023-04-06T12:26:27;12.93;;;4.28;;
23115;SDS011;11727;52.134;5.052;2023-04-06T12:28:53;10.50;;;5.47;;
23115;SDS011;11727;52.134;5.052;2023-04-06T12:31:19;9.20;;;3.97;;
23115;SDS011;11727;52.134;5.052;2023-04-06T12:33:46;9.52;;;4.60;;
23115;SDS011;11727;52.134;5.052;2023-04-06T12:36:17;10.43;;;5.25;;
23115;SDS011;11727;52.134;5.052;2023-04-06T12:38:47;14.30;;;5.28;;
23115;SDS011;11727;52.134;5.052;2023-04-06T12:41:13;13.00;;;5.30;;
23115;SDS011;11727;52.134;5.052;2023-04-06T12:43:40;11.32;;;4.85;;
23115;SDS011;11727;52.134;5.052;2023-04-06T12:46:06;10.95;;;5.20;;
23115;SDS011;11727;52.134;5.052;2023-04-06T12:48:32;11.00;;;5.50;;
23115;SDS011;11727;52.134;5.052;2023-04-06T12:50:58;10.50;;;4.82;;
23115;SDS011;11727;52.134;5.052;2023-04-06T12:53:25;15.88;;;5.88;;
23115;SDS011;11727;52.134;5.052;2023-04-06T12:55:51;12.73;;;5.97;;
23115;SDS011;11727;52.134;5.052;2023-04-06T12:58:18;20.65;;;7.13;;
23115;SDS011;11727;52.134;5.052;2023-04-06T13:00:44;13.13;;;6.00;;
23115;SDS011;11727;52.134;5.052;2023-04-06T13:03:10;14.68;;;6.07;;
23115;SDS011;11727;52.134;5.052;2023-04-06T13:05:36;14.43;;;6.00;;
23115;SDS011;11727;52.134;5.052;2023-04-06T13:08:09;11.27;;;5.65;;
23115;SDS011;11727;52.134;5.052;2023-04-06T13:10:35;12.35;;;5.95;;
23115;SDS011;11727;52.134;5.052;2023-04-06T13:13:01;14.77;;;6.70;;
23115;SDS011;11727;52.134;5.052;2023-04-06T13:15:27;12.85;;;6.55;;
23115;SDS011;11727;52.134;5.052;2023-04-06T13:17:53;13.75;;;5.80;;
23115;SDS011;11727;52.134;5.052;2023-04-06T13:20:19;15.43;;;7.18;;
23115;SDS011;11727;52.134;5.052;2023-04-06T13:22:44;13.73;;;6.05;;
23115;SDS011;11727;52.134;5.052;2023-04-06T13:25:10;12.23;;;5.85;;
23115;SDS011;11727;52.134;5.052;2023-04-06T13:27:35;12.75;;;5.82;;
23115;SDS011;11727;52.134;5.052;2023-04-06T13:30:02;14.40;;;7.50;;
23115;SDS011;11727;52.134;5.052;2023-04-06T13:32:29;14.07;;;6.35;;
23115;SDS011;11727;52.134;5.052;2023-04-06T13:34:56;14.98;;;6.85;;
23115;SDS011;11727;52.134;5.052;2023-04-06T13:37:22;14.88;;;6.68;;
23115;SDS011;11727;52.134;5.052;2023-04-06T13:39:47;15.15;;;6.85;;
23115;SDS011;11727;52.134;5.052;2023-04-06T13:42:13;15.65;;;7.22;;
23115;SDS011;11727;52.134;5.052;2023-04-06T13:44:39;23.08;;;7.35;;
23115;SDS011;11727;52.134;5.052;2023-04-06T13:47:04;18.63;;;7.30;;
23115;SDS011;11727;52.134;5.052;2023-04-06T13:49:30;13.32;;;6.55;;
23115;SDS011;11727;52.134;5.052;2023-04-06T13:51:57;14.30;;;6.63;;
23115;SDS011;11727;52.134;5.052;2023-04-06T13:54:23;16.90;;;6.97;;
23115;SDS011;11727;52.134;5.052;2023-04-06T13:56:48;17.63;;;6.95;;
23115;SDS011;11727;52.134;5.052;2023-04-06T13:59:14;15.93;;;7.18;;
23115;SDS011;11727;52.134;5.052;2023-04-06T14:01:40;16.08;;;7.13;;
23115;SDS011;11727;52.134;5.052;2023-04-06T14:04:05;15.68;;;7.30;;
23115;SDS011;11727;52.134;5.052;2023-04-06T14:06:31;14.80;;;6.50;;
23115;SDS011;11727;52.134;5.052;2023-04-06T14:08:57;17.55;;;8.05;;
23115;SDS011;11727;52.134;5.052;2023-04-06T14:11:23;17.08;;;6.72;;
23115;SDS011;11727;52.134;5.052;2023-04-06T14:13:49;12.77;;;6.43;;
23115;SDS011;11727;52.134;5.052;2023-04-06T14:16:14;18.42;;;7.95;;
23115;SDS011;11727;52.134;5.052;2023-04-06T14:18:43;20.95;;;7.90;;
23115;SDS011;11727;52.134;5.052;2023-04-06T14:21:08;15.75;;;6.88;;
23115;SDS011;11727;52.134;5.052;2023-04-06T14:23:34;16.27;;;7.97;;
23115;SDS011;11727;52.134;5.052;2023-04-06T14:26:03;16.67;;;8.15;;
23115;SDS011;11727;52.134;5.052;2023-04-06T14:28:30;14.35;;;6.70;;
23115;SDS011;11727;52.134;5.052;2023-04-06T14:30:58;16.17;;;7.97;;
23115;SDS011;11727;52.134;5.052;2023-04-06T14:33:25;20.17;;;8.00;;
23115;SDS011;11727;52.134;5.052;2023-04-06T14:35:54;17.92;;;7.75;;
23115;SDS011;11727;52.134;5.052;2023-04-06T14:38:20;12.65;;;7.10;;
23115;SDS011;11727;52.134;5.052;2023-04-06T14:40:46;19.80;;;7.90;;
23115;SDS011;11727;52.134;5.052;2023-04-06T14:43:12;16.08;;;8.02;;
23115;SDS011;11727;52.134;5.052;2023-04-06T14:45:38;21.00;;;9.02;;
23115;SDS011;11727;52.134;5.052;2023-04-06T14:48:04;16.92;;;8.88;;
23115;SDS011;11727;52.134;5.052;2023-04-06T14:50:37;22.15;;;9.73;;
23115;SDS011;11727;52.134;5.052;2023-04-06T14:53:03;20.48;;;9.93;;
23115;SDS011;11727;52.134;5.052;2023-04-06T14:55:29;22.73;;;9.48;;
23115;SDS011;11727;52.134;5.052;2023-04-06T14:57:54;18.50;;;9.57;;
23115;SDS011;11727;52.134;5.052;2023-04-06T15:00:20;19.35;;;9.82;;